Time;durP1;ratioP1;P1;durP2;ratioP2;P2;SDS_P1;SDS_P2;PMS_P1;PMS_P2;Temp;Humidity;BMP_temperature;BMP_pressure;BME280_temperature;BME280_humidity;BME280_pressure;Samples;Min_cycle;Max_cycle;Signal;HPM_P1;HPM_P2
2023/10/15 00:02:37;;;;;;;3.57;1.10;;;7.30;1.00;;;;;;8399305;28;20181;-66
2023/10/15 00:06:41;;;;;;;2.33;0.90;;;7.40;1.00;;;;;;8405814;28;20188;-69
2023/10/15 00:10:42;;;;;;;6.30;1.20;;;7.50;1.00;;;;;;8395586;28;20491;-68
2023/10/15 00:14:43;;;;;;;4.40;1.43;;;7.50;1.00;;;;;;8409631;28;20346;-62
2023/10/15 00:18:45;;;;;;;3.07;1.07;;;7.50;1.00;;;;;;8411281;28;20299;-66
2023/10/15 00:22:49;;;;;;;2.87;0.90;;;7.50;1.00;;;;;;8408263;28;20187;-62
2023/10/15 00:26:50;;;;;;;3.77;1.07;;;7.50;1.00;;;;;;8409903;28;20285;-66
2023/10/15 00:30:51;;;;;;;2.80;1.03;;;7.50;1.00;;;;;;8407505;28;20212;-66
2023/10/15 00:34:53;;;;;;;2.43;0.90;;;7.40;1.00;;;;;;8408813;28;20199;-67
2023/10/15 00:38:55;;;;;;;3.77;1.07;;;7.40;1.00;;;;;;8406897;28;20220;-68
2023/10/15 00:42:57;;;;;;;4.80;1.20;;;7.40;1.00;;;;;;8411790;28;20196;-65
2023/10/15 00:47:01;;;;;;;3.73;0.97;;;7.40;1.00;;;;;;8406098;28;20510;-67
2023/10/15 00:51:09;;;;;;;2.83;0.97;;;7.40;1.00;;;;;;8409446;28;20184;-65
2023/10/15 00:55:19;;;;;;;4.83;1.30;;;7.40;1.00;;;;;;8406839;28;20196;-64
2023/10/15 00:59:21;;;;;;;4.80;1.20;;;7.30;1.00;;;;;;8406402;28;20203;-67
2023/10/15 01:03:33;;;;;;;7.40;1.10;;;7.40;1.00;;;;;;8404725;28;20208;-65
2023/10/15 01:07:43;;;;;;;6.53;1.47;;;7.30;1.00;;;;;;8406854;28;20323;-66
2023/10/15 01:11:50;;;;;;;5.00;1.30;;;7.20;1.00;;;;;;8405212;28;20278;-66
2023/10/15 01:15:58;;;;;;;5.90;1.10;;;7.20;1.00;;;;;;8409694;28;20292;-68
2023/10/15 01:20:00;;;;;;;5.43;1.20;;;7.10;1.00;;;;;;8404550;28;20441;-65
2023/10/15 01:24:04;;;;;;;7.80;1.07;;;7.10;1.00;;;;;;8407723;28;20176;-66
2023/10/15 01:28:06;;;;;;;2.83;1.07;;;7.10;1.00;;;;;;8406150;28;20548;-65
2023/10/15 01:32:11;;;;;;;4.67;1.00;;;7.00;1.00;;;;;;8405541;28;20211;-65
2023/10/15 01:36:21;;;;;;;5.90;1.20;;;6.90;1.00;;;;;;8405941;28;20199;-66
2023/10/15 01:40:37;;;;;;;9.30;1.10;;;6.80;1.00;;;;;;8403518;28;20252;-63
2023/10/15 01:44:47;;;;;;;4.03;0.93;;;6.80;1.00;;;;;;8406094;28;20271;-66
2023/10/15 01:48:49;;;;;;;3.40;1.10;;;6.70;1.00;;;;;;8398626;28;20181;-65
2023/10/15 01:52:54;;;;;;;4.13;0.73;;;6.70;1.00;;;;;;8406423;28;20233;-62
2023/10/15 01:56:55;;;;;;;7.17;1.60;;;6.70;1.00;;;;;;8402720;28;20207;-66
2023/10/15 02:01:04;;;;;;;4.37;1.03;;;6.60;2.20;;;;;;8405768;28;20222;-62
2023/10/15 02:05:16;;;;;;;4.27;0.93;;;6.60;16.70;;;;;;8405979;28;20177;-66
2023/10/15 02:09:23;;;;;;;5.40;1.67;;;6.50;28.10;;;;;;8397976;28;20207;-66
2023/10/15 02:13:26;;;;;;;5.63;0.97;;;6.40;70.60;;;;;;8406599;28;20211;-67
2023/10/15 02:17:27;;;;;;;4.93;1.20;;;6.50;91.10;;;;;;8403159;28;20204;-65
2023/10/15 02:21:35;;;;;;;5.37;1.23;;;6.40;92.60;;;;;;8407487;28;20176;-67
2023/10/15 02:25:41;;;;;;;7.80;1.40;;;6.40;99.90;;;;;;8403384;28;20253;-66
2023/10/15 02:29:47;;;;;;;6.77;1.43;;;6.40;99.40;;;;;;8404166;28;20184;-67
2023/10/15 02:33:48;;;;;;;5.23;1.37;;;6.30;98.30;;;;;;8402980;28;20326;-65
2023/10/15 02:37:49;;;;;;;9.03;1.40;;;6.30;77.40;;;;;;8402413;28;20216;-64
2023/10/15 02:41:52;;;;;;;3.83;1.20;;;6.30;67.40;;;;;;8403613;28;20176;-65
2023/10/15 02:45:53;;;;;;;3.87;1.20;;;6.30;37.20;;;;;;8406131;28;20180;-69
2023/10/15 02:58:43;;;;;;;4.13;1.10;;;6.50;1.00;;;;;;8378506;28;20211;-66
2023/10/15 03:02:44;;;;;;;8.60;1.37;;;6.40;1.00;;;;;;8388005;28;20188;-64
2023/10/15 03:06:48;;;;;;;7.37;1.67;;;6.40;1.00;;;;;;8404069;28;20188;-68
2023/10/15 03:10:56;;;;;;;12.50;1.73;;;6.40;1.00;;;;;;8393781;28;20270;-65
2023/10/15 03:14:57;;;;;;;9.87;2.07;;;6.40;1.00;;;;;;8403153;28;20220;-65
2023/10/15 03:19:07;;;;;;;6.83;1.20;;;6.30;1.00;;;;;;8404208;28;20204;-67
2023/10/15 03:23:12;;;;;;;7.50;1.73;;;6.20;1.00;;;;;;8403002;28;20211;-66
2023/10/15 03:27:22;;;;;;;5.27;1.47;;;6.10;14.70;;;;;;8403129;28;20181;-68
2023/10/15 03:31:27;;;;;;;3.93;1.27;;;6.00;50.30;;;;;;8404576;28;20566;-62
2023/10/15 03:35:33;;;;;;;8.43;1.40;;;5.90;83.10;;;;;;8401559;28;20184;-62
2023/10/15 03:43:35;;;;;;;7.00;1.00;;;5.80;99.90;;;;;;8400153;28;20183;-66
2023/10/15 03:47:39;;;;;;;4.00;1.30;;;5.80;99.90;;;;;;8409252;28;20176;-66
2023/10/15 03:51:48;;;;;;;7.27;1.60;;;5.80;99.90;;;;;;8407503;28;20245;-67
2023/10/15 03:55:49;;;;;;;5.37;1.50;;;5.80;99.90;;;;;;8410064;28;20648;-66
2023/10/15 03:59:53;;;;;;;6.27;1.50;;;5.80;99.90;;;;;;8408721;28;20243;-66
2023/10/15 04:03:53;;;;;;;5.30;1.60;;;5.90;99.90;;;;;;8409133;28;20187;-69
2023/10/15 04:07:55;;;;;;;7.10;1.53;;;6.00;99.90;;;;;;8406589;28;20185;-68
2023/10/15 04:11:55;;;;;;;10.47;1.70;;;6.00;99.90;;;;;;8413488;28;20287;-66
2023/10/15 04:15:57;;;;;;;4.93;1.30;;;6.10;99.90;;;;;;8407321;28;20200;-65
2023/10/15 04:19:57;;;;;;;5.73;1.20;;;6.20;99.90;;;;;;8409645;28;20169;-66
2023/10/15 04:23:59;;;;;;;2.47;1.30;;;6.20;99.90;;;;;;8408932;28;20176;-65
2023/10/15 04:28:12;;;;;;;5.63;1.30;;;6.20;99.90;;;;;;8412199;28;20177;-69
2023/10/15 04:32:17;;;;;;;6.97;1.20;;;6.20;99.90;;;;;;8406969;28;20200;-69
2023/10/15 04:36:19;;;;;;;6.30;1.60;;;6.20;99.20;;;;;;8410328;28;20212;-67
2023/10/15 04:40:23;;;;;;;4.10;1.30;;;6.10;99.90;;;;;;8405575;28;20292;-65
2023/10/15 04:44:31;;;;;;;8.30;1.40;;;6.10;99.90;;;;;;8411182;28;20168;-68
2023/10/15 04:48:32;;;;;;;6.53;1.50;;;6.10;92.10;;;;;;8408632;28;20238;-66
2023/10/15 04:52:33;;;;;;;9.07;1.50;;;6.10;78.90;;;;;;8410090;28;20203;-66
2023/10/15 04:56:34;;;;;;;5.87;1.37;;;6.10;84.00;;;;;;8410151;28;20211;-65
2023/10/15 05:00:37;;;;;;;6.17;1.13;;;6.00;79.60;;;;;;8404509;28;20364;-65
2023/10/15 05:04:38;;;;;;;5.53;1.03;;;5.90;99.90;;;;;;8405797;28;20192;-63
2023/10/15 05:08:47;;;;;;;5.63;1.57;;;5.90;99.90;;;;;;8405804;28;20272;-63
2023/10/15 05:12:47;;;;;;;7.17;1.40;;;5.80;99.90;;;;;;8405268;28;20189;-62
2023/10/15 05:16:48;;;;;;;3.70;1.40;;;5.80;99.90;;;;;;8398618;28;20211;-62
2023/10/15 05:20:50;;;;;;;6.37;1.30;;;5.80;99.90;;;;;;8404791;28;20204;-62
2023/10/15 05:24:51;;;;;;;5.83;1.63;;;5.70;99.90;;;;;;8402737;28;20188;-63
2023/10/15 05:28:52;;;;;;;6.20;1.40;;;5.60;99.90;;;;;;8402041;28;20196;-62
2023/10/15 05:32:55;;;;;;;6.33;2.00;;;5.60;99.90;;;;;;8403082;28;20204;-63
2023/10/15 05:36:56;;;;;;;4.70;1.47;;;5.50;99.90;;;;;;8403728;28;20494;-63
2023/10/15 05:40:57;;;;;;;7.57;1.63;;;5.50;99.90;;;;;;8403796;28;21298;-64
2023/10/15 05:44:58;;;;;;;8.10;1.50;;;5.60;99.90;;;;;;8405035;28;20287;-64
2023/10/15 05:48:59;;;;;;;6.90;1.43;;;5.70;99.90;;;;;;8400987;28;20207;-66
2023/10/15 05:52:59;;;;;;;10.33;1.63;;;5.80;99.90;;;;;;8398792;28;20249;-65
2023/10/15 05:57:05;;;;;;;4.77;1.10;;;5.90;99.90;;;;;;8404717;28;20208;-65
2023/10/15 06:01:06;;;;;;;7.50;2.00;;;6.00;99.90;;;;;;8403956;28;20203;-65
2023/10/15 06:05:07;;;;;;;4.40;1.30;;;6.10;99.90;;;;;;8402876;28;20181;-64
2023/10/15 06:09:10;;;;;;;8.13;2.27;;;6.20;99.90;;;;;;8402473;28;20180;-63
2023/10/15 06:13:11;;;;;;;5.97;1.60;;;6.30;91.70;;;;;;8402603;28;20199;-70
2023/10/15 06:17:12;;;;;;;9.57;2.03;;;6.40;38.10;;;;;;8405117;28;20207;-69
2023/10/15 06:21:14;;;;;;;10.57;2.17;;;6.50;14.50;;;;;;8399020;28;20246;-64
2023/10/15 06:25:19;;;;;;;8.20;2.13;;;6.60;1.00;;;;;;8400289;28;20757;-64
2023/10/15 06:29:19;;;;;;;5.33;2.00;;;6.60;1.00;;;;;;8401346;28;20175;-64
2023/10/15 06:33:20;;;;;;;6.80;1.53;;;6.70;1.00;;;;;;8402457;28;20262;-62
2023/10/15 06:37:21;;;;;;;8.77;1.47;;;6.80;1.00;;;;;;8403314;28;20228;-65
2023/10/15 06:41:21;;;;;;;3.67;1.27;;;6.90;1.00;;;;;;8399317;28;20185;-62
2023/10/15 06:45:23;;;;;;;6.60;1.40;;;7.00;1.00;;;;;;8399718;28;20868;-64
2023/10/15 06:49:24;;;;;;;6.23;1.83;;;7.10;1.00;;;;;;8399655;28;20192;-64
2023/10/15 06:53:26;;;;;;;8.73;1.60;;;7.20;1.00;;;;;;8404955;28;20619;-65
2023/10/15 06:57:27;;;;;;;11.17;2.00;;;7.30;1.00;;;;;;8403857;28;20252;-64
2023/10/15 07:01:30;;;;;;;4.13;1.40;;;7.40;1.00;;;;;;8397440;28;20242;-63
2023/10/15 07:05:31;;;;;;;10.07;2.17;;;7.50;1.00;;;;;;8402878;28;20192;-65
2023/10/15 07:09:32;;;;;;;5.53;1.17;;;7.60;1.00;;;;;;8397423;28;20271;-64
2023/10/15 07:13:34;;;;;;;8.27;1.83;;;7.70;1.00;;;;;;8403504;28;20185;-66
2023/10/15 07:17:38;;;;;;;6.13;1.80;;;7.80;1.00;;;;;;8396779;28;20462;-65
2023/10/15 07:21:39;;;;;;;8.47;2.90;;;7.90;1.00;;;;;;8406861;28;20290;-64
2023/10/15 07:25:42;;;;;;;6.63;1.43;;;8.00;1.00;;;;;;8409608;28;20187;-65
2023/10/15 07:29:44;;;;;;;4.63;1.20;;;8.10;1.00;;;;;;8408597;28;20180;-64
2023/10/15 07:33:46;;;;;;;10.43;2.13;;;8.20;1.00;;;;;;8409619;28;20176;-65
2023/10/15 07:37:49;;;;;;;7.67;1.27;;;8.30;1.00;;;;;;8410942;28;20232;-66
2023/10/15 07:41:51;;;;;;;6.93;1.80;;;8.40;1.00;;;;;;8401849;28;20237;-66
2023/10/15 07:45:52;;;;;;;9.47;2.13;;;8.60;1.00;;;;;;8409679;28;20198;-64
2023/10/15 07:49:57;;;;;;;8.77;1.70;;;8.60;1.00;;;;;;8409517;28;20678;-66
2023/10/15 07:53:59;;;;;;;4.87;1.50;;;8.80;1.00;;;;;;8409381;28;20292;-65
2023/10/15 07:57:59;;;;;;;9.70;1.97;;;8.80;1.00;;;;;;8412160;28;20283;-66
2023/10/15 08:02:00;;;;;;;10.20;1.90;;;8.90;1.00;;;;;;8411627;28;20196;-66
2023/10/15 08:06:02;;;;;;;7.93;1.57;;;9.00;1.00;;;;;;8409009;28;20468;-65
2023/10/15 08:10:03;;;;;;;6.03;1.53;;;9.10;1.00;;;;;;8409344;28;20229;-66
2023/10/15 08:14:05;;;;;;;8.30;1.90;;;9.20;1.00;;;;;;8405309;28;20227;-65
2023/10/15 08:18:06;;;;;;;5.77;1.60;;;9.40;1.00;;;;;;8407934;28;20271;-64
2023/10/15 08:22:07;;;;;;;7.13;1.47;;;9.50;1.00;;;;;;8410078;28;20180;-66
2023/10/15 08:26:08;;;;;;;7.13;1.50;;;9.50;1.00;;;;;;8406522;28;20553;-66
2023/10/15 08:30:13;;;;;;;8.17;2.17;;;9.60;1.00;;;;;;8411964;28;20176;-65
2023/10/15 08:34:14;;;;;;;12.13;2.17;;;9.70;1.00;;;;;;8406473;28;20282;-67
2023/10/15 08:38:14;;;;;;;8.23;1.43;;;9.60;1.00;;;;;;8407221;28;20212;-67
2023/10/15 08:42:20;;;;;;;7.53;1.57;;;9.60;1.00;;;;;;8401233;28;20234;-62
2023/10/15 08:46:24;;;;;;;8.40;1.80;;;9.70;1.00;;;;;;8396722;28;20188;-67
2023/10/15 08:50:27;;;;;;;8.33;1.70;;;9.80;1.00;;;;;;8425302;27;20172;-67
2023/10/15 08:54:28;;;;;;;9.80;1.77;;;9.70;1.00;;;;;;8405749;28;20196;-66
2023/10/15 08:58:30;;;;;;;4.93;1.27;;;9.90;1.00;;;;;;8404638;28;20224;-67
2023/10/15 09:02:31;;;;;;;7.33;1.70;;;10.10;1.00;;;;;;8404033;28;20247;-67
2023/10/15 09:06:34;;;;;;;5.23;1.60;;;10.10;1.00;;;;;;8396602;28;20176;-66
2023/10/15 09:10:43;;;;;;;8.47;2.27;;;10.10;1.00;;;;;;8402680;28;20227;-63
2023/10/15 09:14:45;;;;;;;6.83;1.43;;;10.40;1.00;;;;;;8406129;28;20188;-65
2023/10/15 09:18:47;;;;;;;5.37;1.40;;;10.50;1.00;;;;;;8398297;28;20213;-63
2023/10/15 09:22:48;;;;;;;4.07;1.70;;;10.50;1.00;;;;;;8403899;28;20182;-64
2023/10/15 09:26:50;;;;;;;5.77;1.57;;;10.90;1.00;;;;;;8405814;28;20201;-67
2023/10/15 09:30:53;;;;;;;8.10;1.73;;;11.20;1.00;;;;;;8422443;27;20190;-65
2023/10/15 09:34:53;;;;;;;8.17;1.60;;;11.20;1.00;;;;;;8405656;28;20199;-62
2023/10/15 09:38:56;;;;;;;9.10;1.23;;;11.20;1.00;;;;;;8403257;28;20242;-65
2023/10/15 09:42:57;;;;;;;5.77;1.10;;;11.40;1.00;;;;;;8402859;28;20186;-66
2023/10/15 09:47:05;;;;;;;10.20;1.70;;;11.40;1.00;;;;;;8404178;28;20212;-68
2023/10/15 09:51:07;;;;;;;5.73;1.80;;;11.20;1.00;;;;;;8405260;28;20182;-64
2023/10/15 09:55:11;;;;;;;8.90;1.70;;;10.90;1.00;;;;;;8403115;28;20196;-66
2023/10/15 09:59:14;;;;;;;5.37;1.20;;;10.90;1.00;;;;;;8405404;28;20269;-66
2023/10/15 10:03:39;;;;;;;7.00;1.20;;;10.90;1.00;;;;;;8403257;28;20190;-66
2023/10/15 10:08:10;;;;;;;7.23;1.50;;;10.70;1.00;;;;;;8409100;28;20189;-67
2023/10/15 10:12:30;;;;;;;5.80;1.47;;;10.60;1.00;;;;;;8404615;28;20201;-67
2023/10/15 10:16:32;;;;;;;3.60;1.13;;;10.50;1.00;;;;;;8402915;28;20216;-68
2023/10/15 10:20:35;;;;;;;5.17;1.50;;;10.50;1.00;;;;;;8406504;28;20247;-68
2023/10/15 10:24:42;;;;;;;5.93;1.23;;;10.50;1.00;;;;;;8402611;28;20177;-66
2023/10/15 10:28:44;;;;;;;9.30;1.40;;;10.50;1.00;;;;;;8403026;28;20233;-69
2023/10/15 10:32:44;;;;;;;7.17;1.20;;;10.50;1.00;;;;;;8400710;28;20394;-67
2023/10/15 10:36:53;;;;;;;5.87;1.23;;;10.70;1.00;;;;;;8397943;28;20265;-67
2023/10/15 10:41:03;;;;;;;6.57;1.00;;;10.80;1.00;;;;;;8404279;28;20179;-68
2023/10/15 10:45:04;;;;;;;4.20;1.10;;;10.90;1.00;;;;;;8405042;28;20305;-67
2023/10/15 10:49:08;;;;;;;9.27;1.53;;;10.80;1.00;;;;;;8400540;28;20261;-67
2023/10/15 10:53:13;;;;;;;6.40;1.00;;;10.70;1.00;;;;;;8394115;28;20200;-67
2023/10/15 10:57:18;;;;;;;5.17;1.00;;;10.50;1.00;;;;;;8415079;28;20368;-65
2023/10/15 11:01:21;;;;;;;5.10;1.30;;;10.40;1.00;;;;;;8400201;28;20201;-68
2023/10/15 11:05:22;;;;;;;5.03;1.07;;;10.40;1.00;;;;;;8393521;28;20378;-70
2023/10/15 11:09:23;;;;;;;5.30;1.63;;;10.40;1.00;;;;;;8403975;28;20187;-67
2023/10/15 11:13:24;;;;;;;4.03;0.97;;;10.30;1.00;;;;;;8400402;28;20183;-68
2023/10/15 11:17:26;;;;;;;3.87;1.40;;;10.40;1.00;;;;;;8403344;28;20284;-69
2023/10/15 11:21:27;;;;;;;3.10;1.10;;;10.60;1.00;;;;;;8400067;28;20368;-67
2023/10/15 11:25:28;;;;;;;5.40;1.40;;;10.70;1.00;;;;;;8402408;28;20222;-67
2023/10/15 11:29:29;;;;;;;4.10;0.97;;;10.50;1.00;;;;;;8404465;28;20213;-68
2023/10/15 11:33:30;;;;;;;6.33;1.57;;;10.40;1.00;;;;;;8402619;28;20234;-67
2023/10/15 11:37:35;;;;;;;4.07;0.97;;;10.50;1.00;;;;;;8401778;28;20201;-67
2023/10/15 11:41:39;;;;;;;5.17;1.07;;;10.30;1.00;;;;;;8402429;28;20178;-68
2023/10/15 11:45:41;;;;;;;6.60;1.30;;;10.10;1.00;;;;;;8405479;28;20190;-64
2023/10/15 11:49:42;;;;;;;2.07;0.90;;;10.10;1.00;;;;;;8402011;28;20180;-68
2023/10/15 11:53:46;;;;;;;4.67;1.00;;;10.00;1.00;;;;;;8400842;28;20212;-68
2023/10/15 11:57:50;;;;;;;4.00;0.90;;;10.10;1.00;;;;;;8400998;28;20472;-67
2023/10/15 12:01:53;;;;;;;3.33;1.10;;;10.30;1.00;;;;;;8401217;28;20225;-68
2023/10/15 12:05:54;;;;;;;5.37;1.23;;;10.60;1.00;;;;;;8402055;28;20186;-68
2023/10/15 12:09:55;;;;;;;5.30;1.17;;;11.10;1.00;;;;;;8408099;28;20206;-66
2023/10/15 12:13:56;;;;;;;5.63;1.37;;;11.80;1.00;;;;;;8405950;28;20237;-69
2023/10/15 12:17:56;;;;;;;3.00;1.10;;;12.00;1.00;;;;;;8424278;28;20235;-68
2023/10/15 12:22:00;;;;;;;4.23;1.20;;;12.00;99.90;;;;;;8409586;28;20180;-68
2023/10/15 12:26:00;;;;;;;4.27;1.23;;;11.90;99.90;;;;;;8406271;28;20240;-69
2023/10/15 12:30:04;;;;;;;6.93;1.27;;;11.50;1.00;;;;;;8404643;28;20176;-67
2023/10/15 12:34:08;;;;;;;2.97;0.93;;;11.00;1.00;;;;;;8406507;28;20187;-66
2023/10/15 12:38:16;;;;;;;3.03;0.77;;;10.70;1.00;;;;;;8406597;28;20206;-70
2023/10/15 12:42:21;;;;;;;3.17;0.83;;;10.40;1.00;;;;;;8407890;28;20267;-67
2023/10/15 12:46:22;;;;;;;3.07;1.03;;;10.10;1.00;;;;;;8408636;28;20267;-65
2023/10/15 12:50:23;;;;;;;3.57;1.00;;;9.80;1.00;;;;;;8409734;28;20282;-67
2023/10/15 12:54:25;;;;;;;7.63;1.10;;;9.40;1.00;;;;;;8408739;28;20662;-67
2023/10/15 12:58:26;;;;;;;3.03;1.10;;;9.20;1.00;;;;;;8404589;28;20215;-67
2023/10/15 13:02:28;;;;;;;3.00;0.80;;;8.90;1.00;;;;;;8405132;28;20183;-70
2023/10/15 13:06:28;;;;;;;5.00;1.07;;;8.80;1.00;;;;;;8404890;28;20630;-68
2023/10/15 13:10:29;;;;;;;2.83;0.87;;;8.80;1.00;;;;;;8404408;28;20219;-68
2023/10/15 13:14:30;;;;;;;2.70;0.97;;;8.60;1.00;;;;;;8405985;28;20192;-67
2023/10/15 13:18:38;;;;;;;1.43;0.50;;;8.80;1.00;;;;;;8404308;28;20211;-67
2023/10/15 13:22:38;;;;;;;4.07;1.20;;;8.90;1.00;;;;;;8406144;28;20211;-68
2023/10/15 13:26:45;;;;;;;3.20;1.07;;;8.90;1.00;;;;;;8403857;28;20185;-68
2023/10/15 13:30:47;;;;;;;1.87;0.77;;;8.80;1.00;;;;;;8404360;28;20268;-66
2023/10/15 13:34:49;;;;;;;2.80;1.00;;;8.80;1.00;;;;;;8402066;28;20195;-65
2023/10/15 13:38:50;;;;;;;3.63;1.10;;;8.90;1.00;;;;;;8404931;28;20208;-65
2023/10/15 13:42:52;;;;;;;2.53;0.87;;;9.10;1.00;;;;;;8402025;28;20376;-65
2023/10/15 13:46:53;;;;;;;7.47;1.60;;;9.20;1.00;;;;;;8402496;28;20660;-65
2023/10/15 13:50:54;;;;;;;2.60;1.17;;;9.40;1.00;;;;;;8399460;28;20257;-66
2023/10/15 13:54:55;;;;;;;2.87;1.27;;;9.60;1.00;;;;;;8400612;28;20200;-65
2023/10/15 13:58:55;;;;;;;4.77;1.43;;;9.80;1.00;;;;;;8405958;28;20252;-65
2023/10/15 14:02:56;;;;;;;4.70;1.43;;;9.80;1.00;;;;;;8402915;28;20189;-67
2023/10/15 14:06:57;;;;;;;3.97;1.10;;;10.00;1.00;;;;;;8405031;28;20189;-66
2023/10/15 14:10:58;;;;;;;2.53;1.00;;;10.40;1.00;;;;;;8403067;28;20182;-66
2023/10/15 14:14:59;;;;;;;4.43;1.40;;;10.60;1.00;;;;;;8401770;28;20187;-67
2023/10/15 14:19:00;;;;;;;3.33;1.27;;;10.50;1.00;;;;;;8402456;28;20255;-63
2023/10/15 14:23:01;;;;;;;3.90;1.07;;;9.90;1.00;;;;;;8402072;28;20371;-64
2023/10/15 14:27:02;;;;;;;2.87;0.97;;;8.30;1.00;;;;;;8403318;28;20530;-62
2023/10/15 14:31:02;;;;;;;2.47;1.23;;;7.30;99.90;;;;;;8400536;28;20196;-63
2023/10/15 14:35:04;;;;;;;1.93;1.10;;;6.90;35.30;;;;;;8403015;28;20189;-66
2023/10/15 14:39:07;;;;;;;3.93;1.40;;;6.70;99.90;;;;;;8400838;28;20212;-66
2023/10/15 14:43:09;;;;;;;7.27;1.37;;;6.60;99.90;;;;;;8402862;28;20272;-69
2023/10/15 14:47:11;;;;;;;2.60;1.27;;;6.60;1.00;;;;;;8398446;28;20267;-69
2023/10/15 14:51:11;;;;;;;4.10;1.70;;;6.60;99.90;;;;;;8405566;28;20254;-69
2023/10/15 14:55:16;;;;;;;4.30;1.60;;;6.60;99.90;;;;;;8400591;28;20412;-68
2023/10/15 14:59:17;;;;;;;4.13;2.03;;;6.70;99.90;;;;;;8402173;28;20239;-70
2023/10/15 15:03:21;;;;;;;6.87;1.83;;;6.80;99.90;;;;;;8398754;28;20187;-68
2023/10/15 15:07:22;;;;;;;8.40;2.40;;;6.80;99.90;;;;;;8400492;28;20195;-68
2023/10/15 15:11:23;;;;;;;6.93;2.60;;;6.90;99.90;;;;;;8403283;28;20215;-67
2023/10/15 15:15:23;;;;;;;4.83;2.97;;;6.80;99.90;;;;;;8400892;28;20181;-70
2023/10/15 15:19:25;;;;;;;5.43;2.20;;;6.80;99.90;;;;;;8400259;28;20239;-70
2023/10/15 15:23:29;;;;;;;5.33;1.50;;;6.80;99.90;;;;;;8400335;28;20185;-69
2023/10/15 15:27:29;;;;;;;6.40;1.87;;;6.80;99.90;;;;;;8416741;28;20184;-69
2023/10/15 15:31:31;;;;;;;4.43;1.30;;;6.70;99.90;;;;;;8400032;28;20265;-69
2023/10/15 15:35:32;;;;;;;5.10;1.50;;;6.70;99.90;;;;;;8399973;28;20271;-70
2023/10/15 15:39:32;;;;;;;4.50;1.23;;;6.60;99.90;;;;;;8399663;28;20205;-69
2023/10/15 15:43:35;;;;;;;3.47;1.00;;;6.50;99.90;;;;;;8407071;28;20187;-69
2023/10/15 15:47:36;;;;;;;3.60;1.20;;;6.40;99.90;;;;;;8397243;28;20289;-69
2023/10/15 15:51:38;;;;;;;2.10;1.00;;;6.30;99.90;;;;;;8407978;28;20212;-67
2023/10/15 15:55:42;;;;;;;3.73;1.40;;;6.20;99.90;;;;;;8406714;28;20184;-65
2023/10/15 15:59:43;;;;;;;1.50;1.00;;;6.10;99.90;;;;;;8405562;28;20222;-66
2023/10/15 16:03:44;;;;;;;1.90;1.10;;;6.10;99.90;;;;;;8405451;28;20592;-67
2023/10/15 16:07:45;;;;;;;3.13;1.23;;;6.10;99.90;;;;;;8407243;28;20288;-66
2023/10/15 16:11:46;;;;;;;2.23;1.10;;;6.00;99.90;;;;;;8407358;28;20274;-67
2023/10/15 16:15:47;;;;;;;5.13;1.47;;;6.00;99.90;;;;;;8410321;28;20207;-66
2023/10/15 16:19:51;;;;;;;4.83;1.30;;;5.90;99.90;;;;;;8407051;28;20225;-67
2023/10/15 16:23:52;;;;;;;4.97;1.70;;;5.90;99.90;;;;;;8403927;28;20395;-66
2023/10/15 16:27:53;;;;;;;2.00;1.23;;;6.00;99.90;;;;;;8406347;28;20347;-62
2023/10/15 16:31:54;;;;;;;3.97;1.00;;;6.10;99.90;;;;;;8408441;28;20690;-65
2023/10/15 16:35:55;;;;;;;1.97;1.10;;;6.10;99.90;;;;;;8409009;28;20253;-67
2023/10/15 16:39:57;;;;;;;3.93;1.43;;;6.20;99.90;;;;;;8406938;28;20189;-67
2023/10/15 16:43:57;;;;;;;3.33;1.47;;;6.20;99.90;;;;;;8401113;28;20584;-67
2023/10/15 16:47:58;;;;;;;3.73;1.87;;;6.20;99.90;;;;;;8407294;28;20215;-66
2023/10/15 16:52:00;;;;;;;3.47;1.47;;;6.10;99.90;;;;;;8402170;28;20201;-68
2023/10/15 16:56:05;;;;;;;2.53;1.50;;;6.10;99.90;;;;;;8407252;28;20197;-66
2023/10/15 17:00:09;;;;;;;3.47;1.97;;;6.20;99.90;;;;;;8406972;28;20304;-69
2023/10/15 17:04:09;;;;;;;2.30;1.40;;;6.30;99.90;;;;;;8406348;28;20231;-62
2023/10/15 17:08:11;;;;;;;3.93;1.37;;;6.40;99.90;;;;;;8401003;28;20630;-64
2023/10/15 17:12:11;;;;;;;2.93;1.30;;;6.30;99.90;;;;;;8403324;28;20192;-65
2023/10/15 17:16:12;;;;;;;2.13;1.30;;;6.20;99.90;;;;;;8406004;28;20244;-66
2023/10/15 17:20:15;;;;;;;5.77;1.80;;;6.10;99.90;;;;;;8410761;28;20245;-68
2023/10/15 17:24:16;;;;;;;3.97;1.40;;;6.00;99.90;;;;;;8401723;28;20640;-68
2023/10/15 17:28:17;;;;;;;3.50;1.60;;;5.90;99.90;;;;;;8404492;28;20218;-65
2023/10/15 17:32:18;;;;;;;4.10;1.50;;;5.80;99.90;;;;;;8407537;28;20232;-67
2023/10/15 17:36:20;;;;;;;2.63;1.40;;;5.70;99.90;;;;;;8406172;28;20216;-66
2023/10/15 17:40:20;;;;;;;3.03;1.17;;;5.60;99.90;;;;;;8403554;28;20180;-66
2023/10/15 17:44:23;;;;;;;2.30;1.30;;;5.60;99.90;;;;;;8402830;28;20209;-65
2023/10/15 17:48:23;;;;;;;2.13;1.23;;;5.60;99.90;;;;;;8401530;28;20188;-66
2023/10/15 17:52:24;;;;;;;2.83;1.30;;;5.70;99.90;;;;;;8404346;28;21040;-64
2023/10/15 17:56:28;;;;;;;2.00;1.30;;;5.70;99.90;;;;;;8406754;28;20325;-65
2023/10/15 18:00:30;;;;;;;3.93;1.10;;;5.70;99.90;;;;;;8404466;28;20208;-63
2023/10/15 18:04:31;;;;;;;1.77;1.10;;;5.70;99.90;;;;;;8408356;28;20183;-67
2023/10/15 18:08:32;;;;;;;3.10;1.30;;;5.80;99.90;;;;;;8405025;28;20184;-67
2023/10/15 18:12:33;;;;;;;2.93;1.27;;;5.90;99.90;;;;;;8405612;28;20490;-66
2023/10/15 18:16:34;;;;;;;3.27;1.40;;;5.90;99.90;;;;;;8404302;28;20216;-66
2023/10/15 18:20:35;;;;;;;2.47;1.40;;;5.80;99.90;;;;;;8405671;28;20184;-65
2023/10/15 18:24:38;;;;;;;1.63;1.20;;;5.60;99.90;;;;;;8404432;28;20173;-67
2023/10/15 18:28:40;;;;;;;2.50;1.00;;;5.60;99.90;;;;;;8403245;28;20275;-68
2023/10/15 18:32:40;;;;;;;2.60;1.63;;;5.40;99.90;;;;;;8404773;28;20188;-67
2023/10/15 18:36:41;;;;;;;2.43;1.27;;;5.30;99.90;;;;;;8400877;28;20211;-68
2023/10/15 18:40:44;;;;;;;1.77;1.13;;;5.30;99.90;;;;;;8402688;28;20184;-67
2023/10/15 18:44:46;;;;;;;2.13;1.47;;;5.30;99.90;;;;;;8399922;28;20208;-62
2023/10/15 18:48:47;;;;;;;2.20;1.50;;;5.30;99.90;;;;;;8398807;28;20189;-60
2023/10/15 18:52:47;;;;;;;3.57;1.53;;;5.30;99.90;;;;;;8397661;28;20211;-61
2023/10/15 18:56:49;;;;;;;3.03;1.53;;;5.30;99.90;;;;;;8402476;28;20208;-61
2023/10/15 19:00:50;;;;;;;2.47;1.30;;;5.20;99.90;;;;;;8402230;28;20366;-62
2023/10/15 19:04:51;;;;;;;1.83;1.30;;;5.20;99.90;;;;;;8400761;28;20242;-60
2023/10/15 19:08:52;;;;;;;3.07;1.97;;;5.10;99.90;;;;;;8402725;28;20180;-61
2023/10/15 19:12:56;;;;;;;3.50;1.50;;;5.20;99.90;;;;;;8397410;28;20188;-62
2023/10/15 19:16:59;;;;;;;2.13;1.23;;;5.10;99.90;;;;;;8405552;28;20200;-62
2023/10/15 19:21:00;;;;;;;2.07;1.40;;;5.10;99.90;;;;;;8403751;28;20187;-63
2023/10/15 19:25:01;;;;;;;2.10;1.30;;;5.10;99.90;;;;;;8407806;28;20167;-61
2023/10/15 19:29:04;;;;;;;2.40;1.27;;;5.20;99.90;;;;;;8406537;28;20187;-60
2023/10/15 19:33:06;;;;;;;1.37;0.90;;;5.20;99.90;;;;;;8410096;28;20183;-62
2023/10/15 19:37:09;;;;;;;3.07;1.30;;;5.30;99.90;;;;;;8406565;28;20196;-62
2023/10/15 19:41:10;;;;;;;4.30;1.20;;;5.30;99.90;;;;;;8406634;28;20168;-61
2023/10/15 19:45:11;;;;;;;2.40;1.10;;;5.40;99.90;;;;;;8405002;28;20181;-60
2023/10/15 19:49:12;;;;;;;2.47;1.07;;;5.40;99.90;;;;;;8406606;28;20187;-61
2023/10/15 19:53:13;;;;;;;3.20;1.10;;;5.40;99.90;;;;;;8406949;28;20312;-60
2023/10/15 19:57:14;;;;;;;2.07;1.17;;;5.40;99.90;;;;;;8407509;28;20204;-61
2023/10/15 20:01:16;;;;;;;3.53;1.10;;;5.40;99.90;;;;;;8405616;28;20204;-62
2023/10/15 20:05:17;;;;;;;1.53;1.10;;;5.40;99.90;;;;;;8399381;28;20177;-64
2023/10/15 20:09:18;;;;;;;2.93;1.33;;;5.40;99.90;;;;;;8410372;28;20176;-65
2023/10/15 20:13:19;;;;;;;2.70;1.13;;;5.50;99.90;;;;;;8410852;28;20254;-65
2023/10/15 20:17:20;;;;;;;2.10;1.20;;;5.60;99.90;;;;;;8408617;28;20204;-63
2023/10/15 20:21:21;;;;;;;2.67;1.37;;;5.70;99.90;;;;;;8409645;28;20299;-65
2023/10/15 20:25:22;;;;;;;1.63;1.20;;;5.70;99.90;;;;;;8409394;28;20236;-68
2023/10/15 20:29:23;;;;;;;2.27;1.27;;;5.70;99.90;;;;;;8413482;28;20176;-65
2023/10/15 20:33:24;;;;;;;3.00;1.40;;;5.60;99.90;;;;;;8413133;28;20180;-68
2023/10/15 20:37:25;;;;;;;3.40;1.30;;;5.50;99.90;;;;;;8406989;28;20245;-64
2023/10/15 20:41:26;;;;;;;1.60;1.00;;;5.40;99.90;;;;;;8404185;28;20275;-66
2023/10/15 20:45:26;;;;;;;3.10;1.10;;;5.30;99.90;;;;;;8404469;28;20176;-67
2023/10/15 20:49:27;;;;;;;2.83;1.30;;;5.30;99.90;;;;;;8408327;28;20246;-66
2023/10/15 20:53:29;;;;;;;2.37;1.13;;;5.30;99.90;;;;;;8404349;28;20491;-66
2023/10/15 20:57:31;;;;;;;0.97;0.90;;;5.30;99.90;;;;;;8405898;28;20208;-66
2023/10/15 21:01:31;;;;;;;1.63;1.10;;;5.20;99.90;;;;;;8405631;28;20211;-66
2023/10/15 21:05:32;;;;;;;3.67;1.00;;;5.20;99.90;;;;;;8405699;28;20172;-65
2023/10/15 21:09:33;;;;;;;3.03;1.07;;;5.20;99.90;;;;;;8407700;28;21251;-64
2023/10/15 21:13:34;;;;;;;1.47;1.00;;;5.10;99.90;;;;;;8405963;28;20215;-62
2023/10/15 21:17:38;;;;;;;3.63;1.10;;;5.20;99.90;;;;;;8404529;28;20184;-61
2023/10/15 21:21:41;;;;;;;2.40;1.00;;;5.20;99.90;;;;;;8404490;28;20213;-62
2023/10/15 21:25:42;;;;;;;2.60;1.23;;;5.20;99.90;;;;;;8405991;28;20233;-59
2023/10/15 21:29:43;;;;;;;2.07;1.00;;;5.20;99.90;;;;;;8402045;28;20227;-61
2023/10/15 21:33:45;;;;;;;3.10;1.23;;;5.10;99.90;;;;;;8405225;28;20544;-60
2023/10/15 21:37:47;;;;;;;1.47;0.93;;;5.00;99.90;;;;;;8404071;28;20192;-60